createdAt,value
2019-02-12T00:00:36.537Z,100275.60
2019-02-12T00:03:38.455Z,100274.25
2019-02-12T00:06:40.674Z,100283.59
2019-02-12T00:09:42.543Z,100272.73
2019-02-12T00:12:44.537Z,100283.13
2019-02-12T00:15:46.472Z,100283.88
2019-02-12T00:18:48.428Z,100267.14
2019-02-12T00:21:50.355Z,100276.47
2019-02-12T00:24:52.312Z,100277.09
2019-02-12T00:27:54.182Z,100274.95
2019-02-12T00:30:56.100Z,100298.55
2019-02-12T00:33:58.018Z,100302.44
2019-02-12T00:37:00.300Z,100309.84
2019-02-12T00:40:03.260Z,100312.27
2019-02-12T00:43:05.246Z,100318.52
2019-02-12T00:46:07.184Z,100321.44
2019-02-12T00:49:09.088Z,100321.52
2019-02-12T00:52:11.270Z,100332.61
2019-02-12T00:55:13.205Z,100342.93
2019-02-12T00:58:15.206Z,100339.02
2019-02-12T01:01:17.140Z,100349.54
2019-02-12T01:04:19.075Z,100343.82
2019-02-12T01:07:20.895Z,100346.83
2019-02-12T01:10:22.866Z,100351.95
2019-02-12T01:13:24.724Z,100353.76
2019-02-12T01:16:26.606Z,100347.18
2019-02-12T01:19:28.499Z,100354.94
2019-02-12T01:22:30.478Z,100355.91
2019-02-12T01:25:32.405Z,100351.16
2019-02-12T01:28:34.400Z,100359.63
2019-02-12T01:31:36.301Z,100358.30
2019-02-12T01:34:38.241Z,100365.72
2019-02-12T01:37:40.207Z,100370.61
2019-02-12T01:40:42.149Z,100375.32
2019-02-12T01:43:44.264Z,100371.42
2019-02-12T01:46:46.157Z,100372.63
2019-02-12T01:49:48.120Z,100370.59
2019-02-12T01:52:49.963Z,100366.77
2019-02-12T01:55:51.955Z,100374.22
2019-02-12T01:58:53.826Z,100373.09
2019-02-12T02:01:55.779Z,100374.91
2019-02-12T02:04:57.676Z,100371.73
2019-02-12T02:07:59.558Z,100370.66
2019-02-12T02:11:01.448Z,100378.61
2019-02-12T02:14:03.502Z,100376.71
2019-02-12T02:17:05.416Z,100380.33
2019-02-12T02:20:10.054Z,100381.86
2019-02-12T02:23:11.971Z,100384.78
2019-02-12T02:26:14.016Z,100383.59
2019-02-12T02:29:15.920Z,100380.48
2019-02-12T02:32:17.855Z,100381.05
2019-02-12T02:35:19.785Z,100397.34
2019-02-12T02:38:21.776Z,100383.48
2019-02-12T02:41:23.659Z,100387.43
2019-02-12T02:44:25.661Z,100390.30
2019-02-12T02:47:28.272Z,100386.14
2019-02-12T02:50:30.186Z,100401.04
2019-02-12T02:53:32.146Z,100406.39
2019-02-12T02:56:34.138Z,100401.94
2019-02-12T02:59:36.069Z,100403.73
2019-02-12T03:02:37.972Z,100408.56
2019-02-12T03:05:39.912Z,100401.47
2019-02-12T03:08:41.902Z,100405.09
2019-02-12T03:11:43.828Z,100413.54
2019-02-12T03:14:45.827Z,100426.25
2019-02-12T03:17:47.762Z,100424.73
2019-02-12T03:20:49.733Z,100425.20
2019-02-12T03:23:51.623Z,100437.34
2019-02-12T03:26:53.599Z,100442.70
2019-02-12T03:29:55.664Z,100449.42
2019-02-12T03:32:57.597Z,100455.52
2019-02-12T03:35:59.541Z,100453.42
2019-02-12T03:39:01.399Z,100462.40
2019-02-12T03:42:03.390Z,100471.01
2019-02-12T03:45:08.538Z,100482.04
2019-02-12T03:48:11.972Z,100476.98
2019-02-12T03:51:13.915Z,100484.09
2019-02-12T03:54:15.859Z,100485.42
2019-02-12T03:57:17.786Z,100493.73
2019-02-12T04:00:19.739Z,100501.28
2019-02-12T04:03:21.733Z,100497.53
2019-02-12T04:06:23.625Z,100499.17
2019-02-12T04:09:25.530Z,100495.84
2019-02-12T04:12:27.474Z,100491.47
2019-02-12T04:15:29.368Z,100490.86
2019-02-12T04:18:31.316Z,100489.41
2019-02-12T04:21:33.139Z,100493.58
2019-02-12T04:24:35.088Z,100489.05
2019-02-12T04:27:37.033Z,100494.10
2019-02-12T04:30:38.925Z,100492.21
2019-02-12T04:33:40.881Z,100502.70
2019-02-12T04:36:42.829Z,100506.41
2019-02-12T04:39:44.761Z,100497.65
2019-02-12T04:42:46.682Z,100505.67
2019-02-12T04:45:48.646Z,100504.52
2019-02-12T04:48:51.383Z,100512.14
2019-02-12T04:51:53.407Z,100509.13
2019-02-12T04:54:55.331Z,100499.75
2019-02-12T04:57:57.306Z,100513.20
2019-02-12T05:00:59.589Z,100507.14
2019-02-12T05:04:01.652Z,100509.69
2019-02-12T05:07:03.530Z,100517.23
2019-02-12T05:10:08.848Z,100514.06
2019-02-12T05:13:10.772Z,100529.63
2019-02-12T05:16:12.717Z,100529.33
2019-02-12T05:19:14.611Z,100534.39
2019-02-12T05:22:16.647Z,100530.81
2019-02-12T05:25:18.595Z,100530.07
2019-02-12T05:28:20.617Z,100530.37
2019-02-12T05:31:22.490Z,100539.82
2019-02-12T05:34:24.469Z,100538.22
2019-02-12T05:37:26.385Z,100534.15
2019-02-12T05:40:28.426Z,100537.69
2019-02-12T05:43:30.393Z,100538.84
2019-02-12T05:46:32.429Z,100530.37
2019-02-12T05:49:34.670Z,100536.30
2019-02-12T05:52:37.664Z,100549.73
2019-02-12T05:55:40.903Z,100548.97
2019-02-12T05:58:42.948Z,100552.64
2019-02-12T06:01:44.985Z,100557.53
2019-02-12T06:04:46.950Z,100553.41
2019-02-12T06:07:48.877Z,100557.53
2019-02-12T06:10:50.821Z,100570.83
2019-02-12T06:13:52.773Z,100574.16
2019-02-12T06:16:54.926Z,100570.70
2019-02-12T06:19:57.111Z,100590.31
2019-02-12T06:23:03.846Z,100584.77
2019-02-12T06:26:03.045Z,100582.87
2019-02-12T06:29:05.232Z,100595.31
2019-02-12T06:32:07.271Z,100606.80
2019-02-12T06:35:09.204Z,100614.21
2019-02-12T06:38:11.623Z,100606.09
2019-02-12T06:41:13.536Z,100611.02
2019-02-12T06:44:15.490Z,100604.70
2019-02-12T06:47:17.430Z,100602.16
2019-02-12T06:50:19.746Z,100608.18
2019-02-12T06:53:21.672Z,100613.81
2019-02-12T06:56:23.635Z,100619.61
2019-02-12T06:59:25.590Z,100616.69
2019-02-12T07:03:04.582Z,100619.65
2019-02-12T07:06:26.663Z,100618.14
2019-02-12T07:09:38.273Z,100610.32
2019-02-12T07:12:43.805Z,100616.70
2019-02-12T07:15:45.811Z,100617.08
2019-02-12T07:18:57.470Z,100626.50
2019-02-12T07:22:25.442Z,100618.25
2019-02-12T07:25:42.945Z,100632.88
2019-02-12T07:28:58.802Z,100643.47
2019-02-12T07:32:07.350Z,100644.44
2019-02-12T07:35:16.851Z,100644.77
2019-02-12T07:38:22.349Z,100646.05
2019-02-12T07:41:46.342Z,100646.41
2019-02-12T07:44:57.953Z,100659.27
2019-02-12T07:48:03.635Z,100658.84
2019-02-12T07:51:18.093Z,100661.41
2019-02-12T07:54:44.847Z,100681.05
2019-02-12T07:57:59.461Z,100690.14
2019-02-12T08:01:26.101Z,100697.43
2019-02-12T08:04:51.654Z,100701.72
2019-02-12T08:07:57.281Z,100708.03
2019-02-12T08:11:08.881Z,100711.55
2019-02-12T08:14:32.681Z,100725.58
2019-02-12T08:18:07.245Z,100732.77
2019-02-12T08:21:18.676Z,100742.31
2019-02-12T08:24:30.620Z,100744.00
2019-02-12T08:27:54.236Z,100753.80
2019-02-12T08:31:14.296Z,100757.39
2019-02-12T08:34:28.754Z,100769.16
2019-02-12T08:37:43.194Z,100761.09
2019-02-12T08:41:11.656Z,100768.50
2019-02-12T08:44:23.052Z,100778.70
2019-02-12T08:47:34.910Z,100784.81
2019-02-12T08:50:55.573Z,100783.17
2019-02-12T08:54:19.249Z,100784.73
2019-02-12T08:57:27.613Z,100776.63
2019-02-12T09:00:48.285Z,100768.84
2019-02-12T09:04:02.567Z,100767.27
2019-02-12T09:07:32.272Z,100784.61
2019-02-12T09:10:53.221Z,100783.83
2019-02-12T09:14:04.824Z,100770.94
2019-02-12T09:17:25.434Z,100797.86
2019-02-12T09:20:47.299Z,100799.44
2019-02-12T09:24:12.427Z,100776.95
2019-02-12T09:27:26.897Z,100797.52
2019-02-12T09:30:49.306Z,100808.05
2019-02-12T09:34:28.672Z,100800.47
2019-02-12T09:37:37.217Z,100811.11
2019-02-12T09:40:57.942Z,100804.59
2019-02-12T09:44:18.922Z,100812.47
2019-02-12T09:47:36.462Z,100807.00
2019-02-12T09:50:42.206Z,100793.80
2019-02-12T09:54:08.995Z,100819.59
2019-02-12T09:57:18.158Z,100822.42
2019-02-12T10:00:23.662Z,100839.64
2019-02-12T10:03:56.477Z,100822.07
2019-02-12T10:07:13.842Z,100832.26
2019-02-12T10:10:45.519Z,100833.05
2019-02-12T10:14:03.391Z,100846.34
2019-02-12T10:17:30.523Z,100851.23
2019-02-12T10:20:44.875Z,100850.02
2019-02-12T10:24:19.289Z,100849.31
2019-02-12T10:27:37.426Z,100843.67
2019-02-12T10:30:45.861Z,100845.82
2019-02-12T10:33:47.804Z,100843.72
2019-02-12T10:36:49.734Z,100853.41
2019-02-12T10:39:51.687Z,100867.13
2019-02-12T10:42:53.559Z,100860.89
2019-02-12T10:45:55.537Z,100860.73
2019-02-12T10:48:57.516Z,100867.19
2019-02-12T10:51:59.664Z,100874.45
2019-02-12T10:55:01.896Z,100874.27
2019-02-12T10:58:03.794Z,100874.46
2019-02-12T11:01:06.269Z,100874.14
2019-02-12T11:04:08.163Z,100864.16
2019-02-12T11:07:10.079Z,100851.09
2019-02-12T11:10:12.132Z,100885.78
2019-02-12T11:13:14.065Z,100881.37
2019-02-12T11:16:16.263Z,100883.30
2019-02-12T11:19:18.209Z,100884.78
2019-02-12T11:22:20.195Z,100891.89
2019-02-12T11:25:22.153Z,100897.02
2019-02-12T11:28:24.185Z,100882.08
2019-02-12T11:31:26.099Z,100895.88
2019-02-12T11:34:28.075Z,100904.47
2019-02-12T11:37:29.999Z,100903.77
2019-02-12T11:40:31.957Z,100902.51
2019-02-12T11:43:33.905Z,100902.20
2019-02-12T11:46:35.819Z,100897.27
2019-02-12T11:49:37.759Z,100899.44
2019-02-12T11:52:39.789Z,100897.31
2019-02-12T11:55:41.704Z,100904.55
2019-02-12T11:58:43.658Z,100904.38
2019-02-12T12:01:46.079Z,100919.68
2019-02-12T12:04:48.009Z,100900.09
2019-02-12T12:07:49.921Z,100921.36
2019-02-12T12:10:51.830Z,100919.59
2019-02-12T12:13:53.750Z,100922.30
2019-02-12T12:16:55.714Z,100914.63
2019-02-12T12:19:57.652Z,100922.06
2019-02-12T12:22:59.659Z,100929.25
2019-02-12T12:26:01.616Z,100932.80
2019-02-12T12:29:03.707Z,100937.18
2019-02-12T12:32:05.571Z,100938.27
2019-02-12T12:35:09.245Z,100950.95
2019-02-12T12:38:11.137Z,100952.84
2019-02-12T12:41:13.091Z,100948.38
2019-02-12T12:44:15.018Z,100956.50
2019-02-12T12:47:16.979Z,100958.25
2019-02-12T12:50:18.845Z,100949.61
2019-02-12T12:53:22.308Z,100955.39
2019-02-12T12:56:24.131Z,100963.09
2019-02-12T12:59:26.158Z,100969.84
2019-02-12T13:02:28.434Z,100959.54
2019-02-12T13:05:30.375Z,100974.28
2019-02-12T13:08:32.270Z,100979.01
2019-02-12T13:11:34.578Z,100973.41
2019-02-12T13:14:36.445Z,100980.25
2019-02-12T13:17:38.983Z,100993.43
2019-02-12T13:20:40.910Z,100992.64
2019-02-12T13:23:42.871Z,100993.62
2019-02-12T13:26:44.847Z,100996.38
2019-02-12T13:29:46.790Z,100999.97
2019-02-12T13:32:50.310Z,101005.30
2019-02-12T13:35:52.369Z,101008.78
2019-02-12T13:38:54.388Z,101012.03
2019-02-12T13:41:56.397Z,101015.84
2019-02-12T13:44:58.389Z,101021.59
2019-02-12T13:48:00.350Z,101029.14
2019-02-12T13:51:02.274Z,101036.44
2019-02-12T13:54:04.866Z,101041.30
2019-02-12T13:57:06.747Z,101049.02
2019-02-12T14:00:15.701Z,101056.28
2019-02-12T14:03:22.558Z,101051.78
2019-02-12T14:06:22.732Z,101047.59
2019-02-12T14:09:24.649Z,101053.89
2019-02-12T14:12:26.531Z,101063.59
2019-02-12T14:15:28.485Z,101067.45
2019-02-12T14:18:30.474Z,101080.84
2019-02-12T14:21:32.495Z,101078.87
2019-02-12T14:24:34.360Z,101083.51
2019-02-12T14:27:36.350Z,101084.74
2019-02-12T14:30:38.305Z,101077.55
2019-02-12T14:33:40.515Z,101091.48
2019-02-12T14:36:42.425Z,101099.09
2019-02-12T14:39:44.430Z,101098.67
2019-02-12T14:42:46.530Z,101102.93
2019-02-12T14:45:48.475Z,101091.34
2019-02-12T14:48:50.440Z,101105.98
2019-02-12T14:51:52.570Z,101109.81
2019-02-12T14:54:54.600Z,101122.66
2019-02-12T14:57:56.533Z,101114.95
2019-02-12T15:00:58.385Z,101126.17
2019-02-12T15:04:00.811Z,101125.44
2019-02-12T15:07:02.705Z,101134.82
2019-02-12T15:10:11.830Z,101143.02
2019-02-12T15:13:13.740Z,101137.80
2019-02-12T15:16:15.780Z,101141.03
2019-02-12T15:19:17.785Z,101141.66
2019-02-12T15:22:19.698Z,101154.31
2019-02-12T15:25:21.561Z,101149.55
2019-02-12T15:28:23.535Z,101165.02
2019-02-12T15:31:25.453Z,101168.42
2019-02-12T15:34:27.549Z,101163.20
2019-02-12T15:37:29.423Z,101163.25
2019-02-12T15:40:31.318Z,101174.05
2019-02-12T15:43:33.261Z,101176.91
2019-02-12T15:46:35.172Z,101181.62
2019-02-12T15:49:37.227Z,101179.53
2019-02-12T15:52:39.163Z,101179.98
2019-02-12T15:55:42.418Z,101186.30
2019-02-12T15:58:45.200Z,101196.66
2019-02-12T16:01:49.144Z,101200.31
2019-02-12T16:04:50.915Z,101207.10
2019-02-12T16:07:52.939Z,101210.27
2019-02-12T16:10:55.471Z,101215.75
2019-02-12T16:13:58.939Z,101220.19
2019-02-12T16:17:00.919Z,101227.15
2019-02-12T16:20:04.554Z,101234.08
2019-02-12T16:23:06.473Z,101245.12
2019-02-12T16:26:08.403Z,101261.42
2019-02-12T16:29:10.273Z,101265.52
2019-02-12T16:32:12.357Z,101263.33
2019-02-12T16:35:15.490Z,101258.88
2019-02-12T16:38:17.422Z,101269.35
2019-02-12T16:41:19.395Z,101278.70
2019-02-12T16:44:21.435Z,101283.31
2019-02-12T16:47:23.459Z,101297.33
2019-02-12T16:50:25.632Z,101297.97
2019-02-12T16:53:27.949Z,101300.08
2019-02-12T16:56:30.075Z,101299.02
2019-02-12T16:59:31.938Z,101314.84
2019-02-12T17:02:35.078Z,101313.58
2019-02-12T17:05:37.020Z,101329.41
2019-02-12T17:08:38.959Z,101328.23
2019-02-12T17:11:41.235Z,101336.70
2019-02-12T17:14:43.325Z,101349.36
2019-02-12T17:17:45.669Z,101360.05
2019-02-12T17:20:47.669Z,101362.13
2019-02-12T17:23:49.699Z,101358.47
2019-02-12T17:26:51.641Z,101370.17
2019-02-12T17:29:53.633Z,101376.41
2019-02-12T17:32:55.536Z,101379.53
2019-02-12T17:35:57.445Z,101384.50
2019-02-12T17:39:00.386Z,101391.11
2019-02-12T17:42:03.415Z,101396.95
2019-02-12T17:45:11.147Z,101405.11
2019-02-12T17:48:13.075Z,101405.59
2019-02-12T17:51:15.058Z,101415.30
2019-02-12T17:54:18.732Z,101424.33
2019-02-12T17:57:21.043Z,101421.77
2019-02-12T18:00:27.572Z,101421.19
2019-02-12T18:03:32.675Z,101436.34
2019-02-12T18:06:35.160Z,101433.33
2019-02-12T18:09:37.115Z,101438.91
2019-02-12T18:12:39.022Z,101443.81
2019-02-12T18:15:44.566Z,101445.07
2019-02-12T18:18:46.446Z,101442.72
2019-02-12T18:21:49.635Z,101451.60
2019-02-12T18:24:51.752Z,101447.58
2019-02-12T18:27:53.683Z,101453.41
2019-02-12T18:30:55.662Z,101460.06
2019-02-12T18:33:58.934Z,101456.77
2019-02-12T18:37:02.319Z,101461.23
2019-02-12T18:40:08.013Z,101471.20
2019-02-12T18:43:11.819Z,101472.43
2019-02-12T18:46:13.712Z,101477.59
2019-02-12T18:49:17.454Z,101479.99
2019-02-12T18:52:19.677Z,101479.66
2019-02-12T18:55:21.617Z,101490.19
2019-02-12T18:58:23.784Z,101492.95
2019-02-12T19:01:26.286Z,101491.84
2019-02-12T19:04:28.315Z,101495.19
2019-02-12T19:07:30.219Z,101496.17
2019-02-12T19:10:33.550Z,101503.51
2019-02-12T19:13:35.516Z,101503.44
2019-02-12T19:16:38.683Z,101506.70
2019-02-12T19:19:41.737Z,101507.98
2019-02-12T19:22:51.058Z,101504.62
2019-02-12T19:25:53.029Z,101520.36
2019-02-12T19:28:55.007Z,101513.66
2019-02-12T19:31:59.597Z,101526.23
2019-02-12T19:35:01.773Z,101530.67
2019-02-12T19:38:05.056Z,101537.31
2019-02-12T19:41:06.964Z,101542.24
2019-02-12T19:44:08.978Z,101543.48
2019-02-12T19:47:12.315Z,101539.97
2019-02-12T19:50:14.218Z,101550.20
2019-02-12T19:53:16.657Z,101552.25
2019-02-12T19:56:20.390Z,101559.77
2019-02-12T19:59:22.505Z,101562.86
2019-02-12T20:02:25.524Z,101567.29
2019-02-12T20:05:29.793Z,101567.83
2019-02-12T20:08:31.819Z,101568.87
2019-02-12T20:11:33.973Z,101578.11
2019-02-12T20:14:40.663Z,101579.48
2019-02-12T20:17:42.587Z,101593.91
2019-02-12T20:20:46.098Z,101593.23
2019-02-12T20:23:50.954Z,101586.47
2019-02-12T20:26:52.898Z,101589.50
2019-02-12T20:29:56.587Z,101587.50
2019-02-12T20:32:58.538Z,101596.31
2019-02-12T20:36:00.418Z,101586.88
2019-02-12T20:39:06.810Z,101590.28
2019-02-12T20:42:12.819Z,101590.64
2019-02-12T20:45:16.179Z,101597.43
2019-02-12T20:48:19.084Z,101595.80
2019-02-12T20:51:21.055Z,101598.83
2019-02-12T20:54:25.162Z,101595.13
2019-02-12T20:57:29.941Z,101597.32
2019-02-12T21:00:33.748Z,101603.94
2019-02-12T21:03:35.756Z,101599.20
2019-02-12T21:06:39.638Z,101604.14
2019-02-12T21:09:42.552Z,101604.66
2019-02-12T21:12:44.739Z,101609.76
2019-02-12T21:15:47.731Z,101607.05
2019-02-12T21:18:50.628Z,101605.69
2019-02-12T21:21:54.181Z,101600.28
2019-02-12T21:24:57.491Z,101608.72
2019-02-12T21:28:00.627Z,101613.10
2019-02-12T21:31:02.631Z,101619.19
2019-02-12T21:34:04.592Z,101620.22
2019-02-12T21:37:06.540Z,101622.89
2019-02-12T21:40:14.605Z,101620.85
2019-02-12T21:43:18.558Z,101626.22
2019-02-12T21:46:21.995Z,101636.05
2019-02-12T21:49:24.008Z,101629.23
2019-02-12T21:52:25.943Z,101627.88
2019-02-12T21:55:28.258Z,101629.50
2019-02-12T21:58:30.283Z,101632.88
2019-02-12T22:01:32.305Z,101634.55
2019-02-12T22:04:34.170Z,101634.23
2019-02-12T22:07:36.154Z,101622.41
2019-02-12T22:10:46.233Z,101626.16
2019-02-12T22:13:42.456Z,101620.73
2019-02-12T22:16:44.320Z,101616.48
2019-02-12T22:19:46.257Z,101617.31
2019-02-12T22:22:48.171Z,101613.55
2019-02-12T22:25:50.123Z,101622.30
2019-02-12T22:28:52.024Z,101622.61
2019-02-12T22:31:53.953Z,101627.66
2019-02-12T22:34:55.838Z,101626.97
2019-02-12T22:37:57.754Z,101632.69
2019-02-12T22:40:59.667Z,101639.09
2019-02-12T22:44:01.609Z,101639.40
2019-02-12T22:47:03.466Z,101648.36
2019-02-12T22:50:08.489Z,101656.81
2019-02-12T22:53:10.394Z,101651.49
2019-02-12T22:56:12.341Z,101647.78
2019-02-12T22:59:14.225Z,101650.12
2019-02-12T23:02:16.246Z,101644.33
2019-02-12T23:05:18.232Z,101643.29
2019-02-12T23:08:20.169Z,101642.23
2019-02-12T23:11:22.089Z,101639.66
2019-02-12T23:14:23.952Z,101646.59
2019-02-12T23:17:25.832Z,101657.12
2019-02-12T23:20:27.767Z,101653.69
2019-02-12T23:23:29.603Z,101651.49
2019-02-12T23:26:31.574Z,101654.88
2019-02-12T23:29:33.438Z,101654.65
2019-02-12T23:32:35.433Z,101653.75
2019-02-12T23:35:37.413Z,101658.28
2019-02-12T23:38:39.348Z,101653.70
2019-02-12T23:41:41.269Z,101658.27
2019-02-12T23:44:43.144Z,101654.34
2019-02-12T23:47:45.107Z,101644.96
2019-02-12T23:50:47.893Z,101649.00
2019-02-12T23:53:49.767Z,101657.80
2019-02-12T23:56:51.680Z,101648.94
2019-02-12T23:59:53.629Z,101643.14
